Accueil
METAR-TAF:

METAR-TAF

Aéroports :

Minot Air Force Base

Minot, Dakota du Nord, États-Unis

latitude: 48-25N, longitude: 101-21W, altitude: 508 m

Observation

Le bulletin a été fait il y a 35 minutes, à 00:56 UTC
Vent 5 kt de sud/sud-ouest
Température -16°C
Humidité 78%
Pression 1033 hPa
Visibilité: 16.1 km
Ciel clair

METAR: KMIB 120056Z AUTO 21005KT 10SM CLR M16/M19 A3050 RMK AO2 SLP382 T11571189 $

Heure: 19:31 (01:31 UTC)


TAF: absent

Observations et prévisions météorologiques de plus de 4000 aéroports (messages METAR et TAF).

Les stations disponibles sont représentées par des disques jaunes et rouges sur la carte.

Passer la souris dessus pour voir le nom de la station.

Cliquer dessus pour voir les observations et prévisions météorologiques.

Pour changer de carte: cliquez sur les boutons verts avec une croix noire pour zoomer, sur le bouton vert avec un tiret pour effectuer un zoom arrière, ou sur les flèches vertes pour les cartes adjacentes.


METAR-TAF: